Time,TemperatureF,DewpointF,PressureIn,WindDirection,WindDirectionDegrees,WindSpeedMPH,WindSpeedGustMPH,Humidity,HourlyPrecipIn,Conditions,Clouds,dailyrainin,SoftwareType,DateUTC
2013-06-11 00:26:00,64.8,64.0,29.67,East,96,0.0,-999.0,98,-99.99,,,0.00,weatherlink.com 1.10,2013-06-11 04:26:00,
2013-06-11 00:41:00,64.8,64.0,29.67,East,95,0.0,-999.0,98,-99.99,,,0.00,weatherlink.com 1.10,2013-06-11 04:41:00,
2013-06-11 00:56:00,65.0,65.0,29.67,East,95,0.0,-999.0,98,-99.99,,,0.00,weatherlink.com 1.10,2013-06-11 04:56:00,
2013-06-11 01:26:00,64.8,64.0,29.67,East,95,0.0,-999.0,98,-99.99,,,0.00,weatherlink.com 1.10,2013-06-11 05:26:00,
2013-06-11 01:41:00,64.9,64.0,29.67,East,95,0.0,-999.0,98,-99.99,,,0.00,weatherlink.com 1.10,2013-06-11 05:41:00,
2013-06-11 01:56:00,64.9,64.0,29.66,East,96,0.0,-999.0,98,-99.99,,,0.00,weatherlink.com 1.10,2013-06-11 05:56:00,
2013-06-11 02:11:00,64.8,64.0,29.66,SW,236,0.0,-999.0,98,-99.99,,,0.00,weatherlink.com 1.10,2013-06-11 06:11:00,
2013-06-11 02:26:00,64.4,64.0,29.66,West,264,1.0,-999.0,98,-99.99,,,0.00,weatherlink.com 1.10,2013-06-11 06:26:00,
2013-06-11 02:56:00,63.3,63.0,29.65,SSW,198,0.0,-999.0,98,-99.99,,,0.00,weatherlink.com 1.10,2013-06-11 06:56:00,
2013-06-11 03:11:00,63.0,63.0,29.65,SW,221,0.0,-999.0,98,-99.99,,,0.01,weatherlink.com 1.10,2013-06-11 07:11:00,
2013-06-11 03:26:00,62.7,62.0,29.65,SW,215,0.0,-999.0,98,-99.99,,,0.01,weatherlink.com 1.10,2013-06-11 07:26:00,
2013-06-11 03:41:00,62.7,62.0,29.64,SW,227,0.0,-999.0,98,-99.99,,,0.01,weatherlink.com 1.10,2013-06-11 07:41:00,
2013-06-11 04:26:00,62.6,62.0,29.63,WSW,244,0.0,-999.0,98,-99.99,,,0.01,weatherlink.com 1.10,2013-06-11 08:26:00,
2013-06-11 04:41:00,62.9,62.0,29.63,WSW,257,0.0,-999.0,98,-99.99,,,0.01,weatherlink.com 1.10,2013-06-11 08:41:00,
2013-06-11 04:56:00,63.1,63.0,29.63,West,272,0.0,-999.0,98,-99.99,,,0.01,weatherlink.com 1.10,2013-06-11 08:56:00,
2013-06-11 05:26:00,63.3,63.0,29.62,WSW,254,4.0,-999.0,98,-99.99,,,0.01,weatherlink.com 1.10,2013-06-11 09:26:00,
2013-06-11 05:41:00,63.4,63.0,29.61,WNW,294,3.0,-999.0,98,-99.99,,,0.01,weatherlink.com 1.10,2013-06-11 09:41:00,
2013-06-11 06:41:00,63.4,63.0,29.63,WSW,240,0.0,-999.0,98,-99.99,,,0.01,weatherlink.com 1.10,2013-06-11 10:41:00,
2013-06-11 06:56:00,63.0,63.0,29.63,WSW,246,3.0,-999.0,98,-99.99,,,0.05,weatherlink.com 1.10,2013-06-11 10:56:00,
2013-06-11 07:11:00,62.6,62.0,29.63,West,272,1.0,-999.0,97,-99.99,,,0.08,weatherlink.com 1.10,2013-06-11 11:11:00,
2013-06-11 07:26:00,62.3,62.0,29.64,WSW,251,1.0,-999.0,98,-99.99,,,0.09,weatherlink.com 1.10,2013-06-11 11:26:00,
2013-06-11 07:41:00,61.7,61.0,29.64,WSW,252,1.0,-999.0,97,-99.99,,,0.17,weatherlink.com 1.10,2013-06-11 11:41:00,
2013-06-11 07:56:00,61.1,60.0,29.64,South,189,2.0,-999.0,97,-99.99,,,0.24,weatherlink.com 1.10,2013-06-11 11:56:00,
2013-06-11 08:11:00,60.7,60.0,29.65,West,281,0.0,-999.0,98,-99.99,,,0.28,weatherlink.com 1.10,2013-06-11 12:11:00,
2013-06-11 08:26:00,60.6,60.0,29.65,SE,146,0.0,-999.0,97,-99.99,,,0.29,weatherlink.com 1.10,2013-06-11 12:26:00,
2013-06-11 08:41:00,60.4,60.0,29.65,WSW,240,0.0,-999.0,98,-99.99,,,0.29,weatherlink.com 1.10,2013-06-11 12:41:00,
2013-06-11 09:11:00,60.6,60.0,29.66,WSW,248,2.0,-999.0,98,-99.99,,,0.29,weatherlink.com 1.10,2013-06-11 13:11:00,
2013-06-11 09:26:00,60.8,60.0,29.65,SW,236,1.0,-999.0,98,-99.99,,,0.29,weatherlink.com 1.10,2013-06-11 13:26:00,
2013-06-11 09:41:00,61.2,61.0,29.65,WSW,256,0.0,-999.0,98,-99.99,,,0.29,weatherlink.com 1.10,2013-06-11 13:41:00,
2013-06-11 10:26:00,61.6,61.0,29.66,South,191,2.0,-999.0,98,-99.99,,,0.29,weatherlink.com 1.10,2013-06-11 14:26:00,
2013-06-11 10:56:00,63.4,63.0,29.67,NNW,336,2.0,-999.0,98,-99.99,,,0.29,weatherlink.com 1.10,2013-06-11 14:56:00,
2013-06-11 11:11:00,63.6,63.0,29.67,South,183,0.0,-999.0,99,-99.99,,,0.29,weatherlink.com 1.10,2013-06-11 15:11:00,
2013-06-11 11:26:00,63.2,63.0,29.68,West,259,5.0,-999.0,98,-99.99,,,0.29,weatherlink.com 1.10,2013-06-11 15:26:00,
2013-06-11 11:41:00,63.8,63.0,29.69,SW,217,0.0,-999.0,98,-99.99,,,0.29,weatherlink.com 1.10,2013-06-11 15:41:00,
2013-06-11 11:57:00,63.9,63.0,29.68,WNW,302,3.0,-999.0,97,-99.99,,,0.29,weatherlink.com 1.10,2013-06-11 15:57:00,
2013-06-11 12:26:00,64.3,63.0,29.70,North,350,1.0,-999.0,95,-99.99,,,0.29,weatherlink.com 1.10,2013-06-11 16:26:00,
2013-06-11 12:41:00,64.5,63.0,29.70,NW,326,0.0,-999.0,95,-99.99,,,0.29,weatherlink.com 1.10,2013-06-11 16:41:00,
2013-06-11 12:56:00,65.1,63.0,29.70,WSW,241,0.0,-999.0,93,-99.99,,,0.29,weatherlink.com 1.10,2013-06-11 16:56:00,
2013-06-11 13:26:00,64.9,63.0,29.70,SW,225,1.0,-999.0,93,-99.99,,,0.29,weatherlink.com 1.10,2013-06-11 17:26:00,
2013-06-11 13:56:00,66.7,63.0,29.70,SW,215,2.0,-999.0,89,-99.99,,,0.29,weatherlink.com 1.10,2013-06-11 17:56:00,
2013-06-11 14:26:00,67.1,63.0,29.71,SSE,155,0.0,-999.0,87,-99.99,,,0.29,weatherlink.com 1.10,2013-06-11 18:26:00,
2013-06-11 14:56:00,68.5,63.0,29.71,NW,309,4.0,-999.0,83,-99.99,,,0.29,weatherlink.com 1.10,2013-06-11 18:56:00,
2013-06-11 15:11:00,68.3,63.0,29.71,West,271,2.0,-999.0,82,-99.99,,,0.29,weatherlink.com 1.10,2013-06-11 19:11:00,
2013-06-11 15:26:00,67.5,62.0,29.72,West,277,0.0,-999.0,83,-99.99,,,0.29,weatherlink.com 1.10,2013-06-11 19:26:00,
2013-06-11 15:41:00,67.2,62.0,29.72,NW,326,5.0,-999.0,83,-99.99,,,0.29,weatherlink.com 1.10,2013-06-11 19:41:00,
2013-06-11 15:56:00,67.5,62.0,29.72,ENE,61,0.0,-999.0,82,-99.99,,,0.29,weatherlink.com 1.10,2013-06-11 19:56:00,
2013-06-11 16:11:00,68.3,62.0,29.72,WSW,254,2.0,-999.0,81,-99.99,,,0.29,weatherlink.com 1.10,2013-06-11 20:11:00,
2013-06-11 16:26:00,68.7,62.0,29.73,NE,51,0.0,-999.0,79,-99.99,,,0.29,weatherlink.com 1.10,2013-06-11 20:26:00,
2013-06-11 16:41:00,68.9,62.0,29.73,WNW,299,4.0,-999.0,79,-99.99,,,0.29,weatherlink.com 1.10,2013-06-11 20:41:00,
2013-06-11 16:56:00,69.3,62.0,29.72,NNW,345,0.0,-999.0,78,-99.99,,,0.29,weatherlink.com 1.10,2013-06-11 20:56:00,
2013-06-11 17:11:00,69.6,62.0,29.72,West,272,1.0,-999.0,76,-99.99,,,0.29,weatherlink.com 1.10,2013-06-11 21:11:00,
2013-06-11 17:26:00,69.2,61.0,29.73,NW,323,0.0,-999.0,76,-99.99,,,0.29,weatherlink.com 1.10,2013-06-11 21:26:00,
2013-06-11 17:41:00,68.9,62.0,29.73,East,80,1.0,-999.0,78,-99.99,,,0.29,weatherlink.com 1.10,2013-06-11 21:41:00,
2013-06-11 17:56:00,69.7,62.0,29.73,NW,321,2.0,-999.0,77,-99.99,,,0.29,weatherlink.com 1.10,2013-06-11 21:56:00,
2013-06-11 18:11:00,69.5,62.0,29.73,NE,41,0.0,-999.0,76,-99.99,,,0.29,weatherlink.com 1.10,2013-06-11 22:11:00,
2013-06-11 18:26:00,69.5,62.0,29.73,SW,216,0.0,-999.0,77,-99.99,,,0.29,weatherlink.com 1.10,2013-06-11 22:26:00,
2013-06-11 18:41:00,68.8,62.0,29.73,SW,232,3.0,-999.0,78,-99.99,,,0.29,weatherlink.com 1.10,2013-06-11 22:41:00,
2013-06-11 18:56:00,68.2,61.0,29.74,North,349,0.0,-999.0,79,-99.99,,,0.29,weatherlink.com 1.10,2013-06-11 22:56:00,
2013-06-11 19:11:00,67.9,61.0,29.74,NNE,16,0.0,-999.0,79,-99.99,,,0.29,weatherlink.com 1.10,2013-06-11 23:11:00,
2013-06-11 19:26:00,67.7,61.0,29.74,NNE,13,0.0,-999.0,80,-99.99,,,0.29,weatherlink.com 1.10,2013-06-11 23:26:00,
2013-06-11 19:41:00,67.5,62.0,29.74,SSE,158,0.0,-999.0,81,-99.99,,,0.29,weatherlink.com 1.10,2013-06-11 23:41:00,
2013-06-11 19:56:00,67.1,61.0,29.75,WSW,255,0.0,-999.0,81,-99.99,,,0.29,weatherlink.com 1.10,2013-06-11 23:56:00,
2013-06-11 20:11:00,66.8,61.0,29.75,South,171,0.0,-999.0,82,-99.99,,,0.29,weatherlink.com 1.10,2013-06-12 00:11:00,
2013-06-11 20:26:00,66.6,61.0,29.76,SSW,197,2.0,-999.0,83,-99.99,,,0.29,weatherlink.com 1.10,2013-06-12 00:26:00,
2013-06-11 20:41:00,66.4,62.0,29.76,WNW,284,0.0,-999.0,85,-99.99,,,0.29,weatherlink.com 1.10,2013-06-12 00:41:00,
2013-06-11 20:56:00,66.0,61.0,29.77,West,259,0.0,-999.0,85,-99.99,,,0.29,weatherlink.com 1.10,2013-06-12 00:56:00,
2013-06-11 21:11:00,65.5,61.0,29.77,SW,236,0.0,-999.0,86,-99.99,,,0.29,weatherlink.com 1.10,2013-06-12 01:11:00,
2013-06-11 21:26:00,65.1,61.0,29.77,SW,236,0.0,-999.0,87,-99.99,,,0.29,weatherlink.com 1.10,2013-06-12 01:26:00,
2013-06-11 21:41:00,64.5,61.0,29.78,WSW,257,0.0,-999.0,88,-99.99,,,0.29,weatherlink.com 1.10,2013-06-12 01:41:00,
2013-06-11 21:56:00,64.0,60.0,29.79,WSW,258,0.0,-999.0,88,-99.99,,,0.29,weatherlink.com 1.10,2013-06-12 01:56:00,
2013-06-11 22:11:00,63.3,60.0,29.80,North,5,0.0,-999.0,88,-99.99,,,0.29,weatherlink.com 1.10,2013-06-12 02:11:00,
2013-06-11 22:26:00,62.7,58.0,29.81,NNW,341,0.0,-999.0,84,-99.99,,,0.29,weatherlink.com 1.10,2013-06-12 02:26:00,
2013-06-11 22:41:00,62.7,58.0,29.81,North,355,1.0,-999.0,83,-99.99,,,0.29,weatherlink.com 1.10,2013-06-12 02:41:00,
2013-06-11 22:56:00,62.5,57.0,29.81,NNW,348,0.0,-999.0,82,-99.99,,,0.29,weatherlink.com 1.10,2013-06-12 02:56:00,
2013-06-11 23:11:00,62.0,57.0,29.81,North,355,0.0,-999.0,83,-99.99,,,0.29,weatherlink.com 1.10,2013-06-12 03:11:00,
2013-06-11 23:26:00,61.3,56.0,29.81,North,360,0.0,-999.0,83,-99.99,,,0.29,weatherlink.com 1.10,2013-06-12 03:26:00,
2013-06-11 23:41:00,60.6,56.0,29.82,North,9,0.0,-999.0,84,-99.99,,,0.29,weatherlink.com 1.10,2013-06-12 03:41:00,